Etusivu
METAR-TAF:

METAR-TAF

Lentoasemat :

Annette Island, Alaska, Yhdysvallat

Leveyspiiri: 55-02-32N, Pituuspiiri: 131-34-20W, korkeus merenpinnasta: 36 m

Tämänhetkinen sää

Tämä raportti tehtiin 35 minuuttia sitten, kello 19.59 UTC
Tuuli 6 kn etelästä/kaakosta
Lämpötila 7°C
Kosteus 100%
Ilmanpaine 1010 hPa
Näkyvyys: 16.1 km
Hajanaisia pilviä 1100 ft:n korkeudessa
Hajonneita pilviä 1600 ft:n korkeudessa
Pilvistä 5500 ft:n korkeudessa

METAR: PANT 221959Z AUTO 15006KT 10SM SCT011 BKN016 OVC055 07/07 A2982 RMK T00720067 TSNO VIA AUTODIAL

Aika: 11:34 (20:34 UTC)


TAF: puuttuu

Säähavainnot ja -ennusteet yli 4000 lentoasemalta (METAR- ja TAF-raportit).

Käytössä olevat sääasemat on merkitty karttaan keltaisilla ja punaisilla pisteillä.

Aseta hiiri pisteen päälle nähdäksesi sääaseman nimen.

Klikkaa sitten nähdäksesi säähavainnot ja -ennusteet.

Kartan vaihtaminen: klikkaa mustalla rastilla varustettuja vihreitä pisteitä, niin voit zoomata sisään; viivalla varustettua vihreää pistettä, niin voit zoomata ulos tai vihreitä nuolia, niin pääset viereisille kartoille.


METAR-TAF: